sensor_id;sensor_type;location;lat;lon;timestamp;pressure;altitude;pressure_sealevel;temperature;humidity
12793;BME280;6460;42.684;23.260;2023-07-13T03:50:26;94825.84;;;22.65;81.28
12793;BME280;6460;42.684;23.260;2023-07-13T03:52:54;94822.06;;;22.59;82.04
12793;BME280;6460;42.684;23.260;2023-07-13T03:55:21;94819.44;;;22.72;81.33
12793;BME280;6460;42.684;23.260;2023-07-13T03:57:54;94813.78;;;22.79;81.21
12793;BME280;6460;42.684;23.260;2023-07-13T04:00:25;94828.13;;;22.87;80.70
12793;BME280;6460;42.684;23.260;2023-07-13T04:02:52;94811.22;;;23.04;80.47
12793;BME280;6460;42.684;23.260;2023-07-13T04:05:19;94807.53;;;23.11;80.22
12793;BME280;6460;42.684;23.260;2023-07-13T04:07:48;94814.13;;;23.13;80.40
12793;BME280;6460;42.684;23.260;2023-07-13T04:10:15;94812.59;;;23.29;80.17
12793;BME280;6460;42.684;23.260;2023-07-13T04:12:42;94812.00;;;23.21;80.66
12793;BME280;6460;42.684;23.260;2023-07-13T04:15:09;94813.25;;;23.33;80.67
12793;BME280;6460;42.684;23.260;2023-07-13T04:17:37;94808.03;;;23.38;80.36
12793;BME280;6460;42.684;23.260;2023-07-13T04:20:05;94819.81;;;22.90;81.46
12793;BME280;6460;42.684;23.260;2023-07-13T04:22:33;94812.06;;;23.34;80.11
12793;BME280;6460;42.684;23.260;2023-07-13T04:25:01;94821.53;;;23.16;80.32
12793;BME280;6460;42.684;23.260;2023-07-13T04:27:30;94823.34;;;23.36;80.05
12793;BME280;6460;42.684;23.260;2023-07-13T04:29:57;94827.66;;;23.53;80.14
12793;BME280;6460;42.684;23.260;2023-07-13T04:32:25;94820.25;;;23.66;79.34
12793;BME280;6460;42.684;23.260;2023-07-13T04:34:52;94821.78;;;23.67;79.28
12793;BME280;6460;42.684;23.260;2023-07-13T04:37:21;94831.31;;;23.62;79.95
12793;BME280;6460;42.684;23.260;2023-07-13T04:39:48;94839.22;;;23.60;81.31
12793;BME280;6460;42.684;23.260;2023-07-13T04:42:17;94838.53;;;23.56;81.92
12793;BME280;6460;42.684;23.260;2023-07-13T04:44:47;94840.84;;;23.58;81.54
12793;BME280;6460;42.684;23.260;2023-07-13T04:47:15;94845.47;;;23.61;81.42
12793;BME280;6460;42.684;23.260;2023-07-13T04:49:42;94844.69;;;23.60;82.66
12793;BME280;6460;42.684;23.260;2023-07-13T04:52:10;94848.00;;;23.68;82.80
12793;BME280;6460;42.684;23.260;2023-07-13T04:54:37;94847.59;;;23.69;81.69
12793;BME280;6460;42.684;23.260;2023-07-13T04:57:05;94851.44;;;23.72;81.31
12793;BME280;6460;42.684;23.260;2023-07-13T04:59:34;94850.56;;;23.75;81.12
12793;BME280;6460;42.684;23.260;2023-07-13T05:02:01;94857.06;;;23.81;80.54
12793;BME280;6460;42.684;23.260;2023-07-13T05:04:29;94849.19;;;23.83;80.07
12793;BME280;6460;42.684;23.260;2023-07-13T05:06:56;94850.19;;;23.89;79.98
12793;BME280;6460;42.684;23.260;2023-07-13T05:09:23;94854.31;;;24.10;79.16
12793;BME280;6460;42.684;23.260;2023-07-13T05:11:50;94856.78;;;24.20;80.34
12793;BME280;6460;42.684;23.260;2023-07-13T05:14:18;94853.53;;;24.09;78.97
12793;BME280;6460;42.684;23.260;2023-07-13T05:16:46;94859.34;;;23.99;78.27
12793;BME280;6460;42.684;23.260;2023-07-13T05:19:14;94864.03;;;24.14;77.40
12793;BME280;6460;42.684;23.260;2023-07-13T05:21:41;94854.81;;;24.21;77.38
12793;BME280;6460;42.684;23.260;2023-07-13T05:24:08;94856.06;;;24.33;76.61
12793;BME280;6460;42.684;23.260;2023-07-13T05:26:36;94854.53;;;24.44;76.22
12793;BME280;6460;42.684;23.260;2023-07-13T05:29:03;94861.25;;;24.56;76.48
12793;BME280;6460;42.684;23.260;2023-07-13T05:31:30;94864.03;;;24.68;75.94
12793;BME280;6460;42.684;23.260;2023-07-13T05:33:59;94863.47;;;24.73;75.42
12793;BME280;6460;42.684;23.260;2023-07-13T05:36:26;94867.00;;;24.87;75.03
12793;BME280;6460;42.684;23.260;2023-07-13T05:38:53;94867.47;;;24.98;73.92
12793;BME280;6460;42.684;23.260;2023-07-13T05:41:21;94871.09;;;25.07;72.44
12793;BME280;6460;42.684;23.260;2023-07-13T05:43:48;94865.50;;;24.98;73.01
12793;BME280;6460;42.684;23.260;2023-07-13T05:46:15;94870.63;;;25.21;72.12
12793;BME280;6460;42.684;23.260;2023-07-13T05:48:43;94871.06;;;25.20;72.45
12793;BME280;6460;42.684;23.260;2023-07-13T05:51:11;94873.50;;;25.05;72.75
12793;BME280;6460;42.684;23.260;2023-07-13T05:53:39;94857.81;;;25.53;72.03
12793;BME280;6460;42.684;23.260;2023-07-13T05:56:06;94857.03;;;25.65;71.85
12793;BME280;6460;42.684;23.260;2023-07-13T05:58:33;94859.16;;;25.83;71.92
12793;BME280;6460;42.684;23.260;2023-07-13T06:01:03;94846.47;;;25.85;71.82
12793;BME280;6460;42.684;23.260;2023-07-13T06:03:31;94854.81;;;25.94;71.33
12793;BME280;6460;42.684;23.260;2023-07-13T06:05:59;94848.16;;;26.04;70.39
12793;BME280;6460;42.684;23.260;2023-07-13T06:08:28;94847.84;;;26.02;67.25
12793;BME280;6460;42.684;23.260;2023-07-13T06:11:02;94845.75;;;26.28;66.86
12793;BME280;6460;42.684;23.260;2023-07-13T06:13:30;94854.19;;;26.34;66.77
12793;BME280;6460;42.684;23.260;2023-07-13T06:15:57;94853.56;;;26.29;66.16
12793;BME280;6460;42.684;23.260;2023-07-13T06:18:25;94857.03;;;26.52;65.80
12793;BME280;6460;42.684;23.260;2023-07-13T06:20:52;94855.56;;;26.60;63.90
12793;BME280;6460;42.684;23.260;2023-07-13T06:23:19;94866.94;;;26.71;62.29
12793;BME280;6460;42.684;23.260;2023-07-13T06:25:48;94867.34;;;26.82;61.71
12793;BME280;6460;42.684;23.260;2023-07-13T06:28:16;94873.22;;;26.93;61.75
12793;BME280;6460;42.684;23.260;2023-07-13T06:30:43;94867.88;;;26.99;63.09
12793;BME280;6460;42.684;23.260;2023-07-13T06:33:10;94867.63;;;27.06;61.55
12793;BME280;6460;42.684;23.260;2023-07-13T06:35:37;94853.88;;;27.24;61.33
12793;BME280;6460;42.684;23.260;2023-07-13T06:38:04;94860.63;;;27.32;62.20
12793;BME280;6460;42.684;23.260;2023-07-13T06:40:32;94860.84;;;27.47;61.46
12793;BME280;6460;42.684;23.260;2023-07-13T06:43:01;94858.72;;;27.60;60.55
12793;BME280;6460;42.684;23.260;2023-07-13T06:45:28;94847.69;;;27.78;59.68
12793;BME280;6460;42.684;23.260;2023-07-13T06:47:55;94847.81;;;28.02;59.61
12793;BME280;6460;42.684;23.260;2023-07-13T06:50:23;94849.38;;;28.30;58.24
12793;BME280;6460;42.684;23.260;2023-07-13T06:52:50;94849.38;;;28.30;58.84
12793;BME280;6460;42.684;23.260;2023-07-13T06:55:18;94844.25;;;28.56;57.57
12793;BME280;6460;42.684;23.260;2023-07-13T06:57:45;94850.97;;;28.64;57.19
12793;BME280;6460;42.684;23.260;2023-07-13T07:00:15;94854.59;;;28.88;56.91
12793;BME280;6460;42.684;23.260;2023-07-13T07:02:42;94852.69;;;29.12;55.38
12793;BME280;6460;42.684;23.260;2023-07-13T07:05:10;94860.28;;;29.35;54.09
12793;BME280;6460;42.684;23.260;2023-07-13T07:07:37;94849.25;;;29.50;53.46
12793;BME280;6460;42.684;23.260;2023-07-13T07:10:05;94854.84;;;29.65;53.31
12793;BME280;6460;42.684;23.260;2023-07-13T07:12:33;94854.91;;;29.56;52.66
12793;BME280;6460;42.684;23.260;2023-07-13T07:15:00;94850.75;;;29.84;50.96
12793;BME280;6460;42.684;23.260;2023-07-13T07:17:28;94846.59;;;30.03;50.61
12793;BME280;6460;42.684;23.260;2023-07-13T07:19:56;94842.41;;;30.22;49.46
12793;BME280;6460;42.684;23.260;2023-07-13T07:22:23;94843.75;;;30.12;49.89
12793;BME280;6460;42.684;23.260;2023-07-13T07:24:52;94843.31;;;30.58;49.50
12793;BME280;6460;42.684;23.260;2023-07-13T07:27:19;94842.38;;;30.75;48.97
12793;BME280;6460;42.684;23.260;2023-07-13T07:29:47;94839.28;;;30.88;48.84
12793;BME280;6460;42.684;23.260;2023-07-13T07:32:14;94838.03;;;30.89;48.53
12793;BME280;6460;42.684;23.260;2023-07-13T07:34:42;94830.19;;;31.02;47.80
12793;BME280;6460;42.684;23.260;2023-07-13T07:37:11;94832.66;;;31.15;46.82
12793;BME280;6460;42.684;23.260;2023-07-13T07:39:38;94827.06;;;31.29;44.88
12793;BME280;6460;42.684;23.260;2023-07-13T07:42:06;94825.16;;;31.21;45.84
12793;BME280;6460;42.684;23.260;2023-07-13T07:44:33;94818.84;;;31.20;47.30
12793;BME280;6460;42.684;23.260;2023-07-13T07:47:01;94820.38;;;31.76;46.71
12793;BME280;6460;42.684;23.260;2023-07-13T07:49:28;94820.72;;;32.04;44.98
12793;BME280;6460;42.684;23.260;2023-07-13T07:51:56;94815.56;;;32.17;43.97
12793;BME280;6460;42.684;23.260;2023-07-13T07:54:23;94820.88;;;31.40;45.15
12793;BME280;6460;42.684;23.260;2023-07-13T07:56:50;94813.19;;;31.50;45.73
12793;BME280;6460;42.684;23.260;2023-07-13T07:59:18;94812.03;;;31.96;43.72
12793;BME280;6460;42.684;23.260;2023-07-13T08:01:45;94808.22;;;32.45;43.89
12793;BME280;6460;42.684;23.260;2023-07-13T08:04:13;94796.81;;;32.64;42.93
12793;BME280;6460;42.684;23.260;2023-07-13T08:06:40;94795.81;;;32.41;43.07
12793;BME280;6460;42.684;23.260;2023-07-13T08:09:09;94796.00;;;32.58;43.01
12793;BME280;6460;42.684;23.260;2023-07-13T08:11:36;94790.88;;;32.82;42.92
12793;BME280;6460;42.684;23.260;2023-07-13T08:14:03;94798.56;;;32.98;41.78
12793;BME280;6460;42.684;23.260;2023-07-13T08:16:30;94789.59;;;33.14;41.03
12793;BME280;6460;42.684;23.260;2023-07-13T08:18:58;94786.69;;;33.34;40.07
12793;BME280;6460;42.684;23.260;2023-07-13T08:21:25;94783.44;;;33.47;39.96
12793;BME280;6460;42.684;23.260;2023-07-13T08:23:52;94785.59;;;33.63;40.97
12793;BME280;6460;42.684;23.260;2023-07-13T08:26:20;94785.38;;;33.78;39.83
12793;BME280;6460;42.684;23.260;2023-07-13T08:28:47;94785.84;;;33.65;39.12
12793;BME280;6460;42.684;23.260;2023-07-13T08:31:15;94785.41;;;33.89;38.59
12793;BME280;6460;42.684;23.260;2023-07-13T08:33:42;94786.94;;;33.95;38.01
12793;BME280;6460;42.684;23.260;2023-07-13T08:36:09;94776.06;;;34.09;37.85
12793;BME280;6460;42.684;23.260;2023-07-13T08:38:37;94767.53;;;34.29;39.14
12793;BME280;6460;42.684;23.260;2023-07-13T08:41:12;94772.59;;;34.25;38.97
12793;BME280;6460;42.684;23.260;2023-07-13T08:43:42;94770.06;;;34.32;37.75
12793;BME280;6460;42.684;23.260;2023-07-13T08:46:13;94768.81;;;34.44;37.20
12793;BME280;6460;42.684;23.260;2023-07-13T08:48:45;94771.56;;;34.28;36.17
12793;BME280;6460;42.684;23.260;2023-07-13T08:51:24;94772.31;;;34.12;36.84
12793;BME280;6460;42.684;23.260;2023-07-13T08:53:57;94770.63;;;34.70;36.41
12793;BME280;6460;42.684;23.260;2023-07-13T08:56:28;94777.19;;;34.55;35.18
12793;BME280;6460;42.684;23.260;2023-07-13T08:58:58;94776.69;;;34.85;34.70
12793;BME280;6460;42.684;23.260;2023-07-13T09:01:31;94782.31;;;34.74;36.17
12793;BME280;6460;42.684;23.260;2023-07-13T09:04:05;94785.06;;;34.63;35.62
12793;BME280;6460;42.684;23.260;2023-07-13T09:06:40;94788.63;;;35.02;36.00
12793;BME280;6460;42.684;23.260;2023-07-13T09:09:17;94798.81;;;35.16;35.52
12793;BME280;6460;42.684;23.260;2023-07-13T09:11:52;94803.38;;;35.19;36.59
12793;BME280;6460;42.684;23.260;2023-07-13T09:14:37;94790.38;;;35.33;37.88
12793;BME280;6460;42.684;23.260;2023-07-13T09:17:12;94788.56;;;35.46;37.34
12793;BME280;6460;42.684;23.260;2023-07-13T09:19:42;94796.03;;;34.72;37.08
12793;BME280;6460;42.684;23.260;2023-07-13T09:22:14;94789.47;;;35.82;35.14
12793;BME280;6460;42.684;23.260;2023-07-13T09:24:52;94792.88;;;35.64;35.68
12793;BME280;6460;42.684;23.260;2023-07-13T09:27:22;94793.59;;;35.65;35.67
12793;BME280;6460;42.684;23.260;2023-07-13T09:29:58;94791.84;;;35.62;34.98
12793;BME280;6460;42.684;23.260;2023-07-13T09:32:29;94800.59;;;35.99;34.24
12793;BME280;6460;42.684;23.260;2023-07-13T09:34:57;94795.69;;;36.22;32.87
12793;BME280;6460;42.684;23.260;2023-07-13T09:37:30;94792.47;;;36.42;33.47
12793;BME280;6460;42.684;23.260;2023-07-13T09:40:01;94790.81;;;36.28;29.72
12793;BME280;6460;42.684;23.260;2023-07-13T09:42:32;94800.06;;;34.71;27.29
12793;BME280;6460;42.684;23.260;2023-07-13T09:45:02;94804.88;;;34.76;26.25
12793;BME280;6460;42.684;23.260;2023-07-13T09:47:31;94791.59;;;34.15;26.51
12793;BME280;6460;42.684;23.260;2023-07-13T09:50:00;94791.56;;;34.04;26.03
12793;BME280;6460;42.684;23.260;2023-07-13T09:52:40;94776.75;;;33.76;27.14
12793;BME280;6460;42.684;23.260;2023-07-13T09:55:23;94775.75;;;33.79;26.85
12793;BME280;6460;42.684;23.260;2023-07-13T09:57:51;94774.84;;;34.15;27.52
12793;BME280;6460;42.684;23.260;2023-07-13T10:00:26;94776.41;;;34.38;26.79
12793;BME280;6460;42.684;23.260;2023-07-13T10:03:02;94767.41;;;33.95;28.00
12793;BME280;6460;42.684;23.260;2023-07-13T10:05:38;94750.50;;;34.21;27.27
12793;BME280;6460;42.684;23.260;2023-07-13T10:08:08;94754.53;;;34.09;29.04
12793;BME280;6460;42.684;23.260;2023-07-13T10:10:41;94745.44;;;34.14;27.09
12793;BME280;6460;42.684;23.260;2023-07-13T10:13:26;94735.28;;;34.11;27.39
12793;BME280;6460;42.684;23.260;2023-07-13T10:15:55;94747.50;;;34.41;28.97
12793;BME280;6460;42.684;23.260;2023-07-13T10:18:25;94751.50;;;35.35;26.59
12793;BME280;6460;42.684;23.260;2023-07-13T10:21:00;94751.03;;;35.20;26.49
12793;BME280;6460;42.684;23.260;2023-07-13T10:23:36;94746.97;;;35.04;26.31
12793;BME280;6460;42.684;23.260;2023-07-13T10:26:03;94767.81;;;34.92;26.17
12793;BME280;6460;42.684;23.260;2023-07-13T10:28:36;94766.25;;;34.46;26.43
12793;BME280;6460;42.684;23.260;2023-07-13T10:31:11;94748.03;;;34.84;26.65
12793;BME280;6460;42.684;23.260;2023-07-13T10:33:39;94749.81;;;34.87;25.69
12793;BME280;6460;42.684;23.260;2023-07-13T10:36:14;94742.59;;;35.31;25.13
12793;BME280;6460;42.684;23.260;2023-07-13T10:38:46;94737.47;;;35.46;25.28
12793;BME280;6460;42.684;23.260;2023-07-13T10:41:18;94737.31;;;34.99;25.06
12793;BME280;6460;42.684;23.260;2023-07-13T10:43:48;94733.16;;;35.45;25.03
12793;BME280;6460;42.684;23.260;2023-07-13T10:46:22;94735.56;;;35.13;24.35
12793;BME280;6460;42.684;23.260;2023-07-13T10:48:53;94734.25;;;35.25;25.00
12793;BME280;6460;42.684;23.260;2023-07-13T10:51:22;94720.94;;;35.53;24.79
12793;BME280;6460;42.684;23.260;2023-07-13T10:54:17;94725.66;;;35.12;25.84
12793;BME280;6460;42.684;23.260;2023-07-13T10:56:45;94711.66;;;35.01;27.37
12793;BME280;6460;42.684;23.260;2023-07-13T10:59:16;94697.63;;;35.34;26.25
12793;BME280;6460;42.684;23.260;2023-07-13T11:01:54;94694.38;;;35.14;26.62
12793;BME280;6460;42.684;23.260;2023-07-13T11:04:22;94701.66;;;35.44;24.91
12793;BME280;6460;42.684;23.260;2023-07-13T11:06:53;94699.50;;;35.73;24.70
12793;BME280;6460;42.684;23.260;2023-07-13T11:09:35;94694.81;;;35.34;25.46
12793;BME280;6460;42.684;23.260;2023-07-13T11:12:08;94681.28;;;35.49;25.71
12793;BME280;6460;42.684;23.260;2023-07-13T11:14:43;94687.84;;;34.72;25.87
12793;BME280;6460;42.684;23.260;2023-07-13T11:17:47;94681.44;;;35.05;26.27
12793;BME280;6460;42.684;23.260;2023-07-13T11:23:19;94680.22;;;34.73;26.98
12793;BME280;6460;42.684;23.260;2023-07-13T11:25:47;94693.63;;;35.02;26.97
12793;BME280;6460;42.684;23.260;2023-07-13T11:28:17;94678.13;;;35.06;26.88
12793;BME280;6460;42.684;23.260;2023-07-13T11:30:49;94686.84;;;34.59;27.85
12793;BME280;6460;42.684;23.260;2023-07-13T11:33:20;94672.03;;;35.19;26.70
12793;BME280;6460;42.684;23.260;2023-07-13T11:35:58;94664.59;;;35.85;26.72
12793;BME280;6460;42.684;23.260;2023-07-13T11:38:32;94660.16;;;34.80;27.32
12793;BME280;6460;42.684;23.260;2023-07-13T11:41:03;94668.75;;;35.10;28.05
12793;BME280;6460;42.684;23.260;2023-07-13T11:43:31;94674.16;;;34.52;27.57
12793;BME280;6460;42.684;23.260;2023-07-13T11:46:12;94676.31;;;35.20;26.62
12793;BME280;6460;42.684;23.260;2023-07-13T11:48:41;94660.69;;;36.34;25.27
12793;BME280;6460;42.684;23.260;2023-07-13T11:51:17;94662.34;;;36.78;25.45
12793;BME280;6460;42.684;23.260;2023-07-13T11:53:48;94663.03;;;36.60;24.94
12793;BME280;6460;42.684;23.260;2023-07-13T11:56:16;94659.91;;;35.57;25.28
12793;BME280;6460;42.684;23.260;2023-07-13T11:58:43;94653.69;;;36.17;24.83
12793;BME280;6460;42.684;23.260;2023-07-13T12:01:17;94653.56;;;35.98;25.08
12793;BME280;6460;42.684;23.260;2023-07-13T12:03:48;94654.94;;;35.86;26.02
12793;BME280;6460;42.684;23.260;2023-07-13T12:06:26;94644.84;;;36.42;24.95
12793;BME280;6460;42.684;23.260;2023-07-13T12:08:58;94645.09;;;35.74;25.32
12793;BME280;6460;42.684;23.260;2023-07-13T12:11:27;94642.34;;;36.09;24.94
12793;BME280;6460;42.684;23.260;2023-07-13T12:13:57;94649.06;;;36.25;24.50
12793;BME280;6460;42.684;23.260;2023-07-13T12:16:27;94640.41;;;35.87;25.11
12793;BME280;6460;42.684;23.260;2023-07-13T12:18:57;94623.16;;;36.97;23.09
12793;BME280;6460;42.684;23.260;2023-07-13T12:21:29;94622.97;;;36.89;23.67
12793;BME280;6460;42.684;23.260;2023-07-13T12:23:57;94628.16;;;36.85;24.19
12793;BME280;6460;42.684;23.260;2023-07-13T12:26:28;94619.28;;;37.24;23.97
12793;BME280;6460;42.684;23.260;2023-07-13T12:28:57;94617.63;;;37.16;24.30
12793;BME280;6460;42.684;23.260;2023-07-13T12:31:34;94616.91;;;37.52;23.05
12793;BME280;6460;42.684;23.260;2023-07-13T12:34:09;94612.00;;;37.34;23.33
12793;BME280;6460;42.684;23.260;2023-07-13T12:36:46;94615.38;;;37.51;22.12
12793;BME280;6460;42.684;23.260;2023-07-13T12:39:17;94617.88;;;36.39;24.04
12793;BME280;6460;42.684;23.260;2023-07-13T12:41:45;94618.06;;;35.82;24.60
12793;BME280;6460;42.684;23.260;2023-07-13T12:44:14;94594.56;;;35.96;24.09
12793;BME280;6460;42.684;23.260;2023-07-13T12:46:53;94591.63;;;35.83;23.39
12793;BME280;6460;42.684;23.260;2023-07-13T12:49:27;94593.22;;;35.73;24.37
12793;BME280;6460;42.684;23.260;2023-07-13T12:51:59;94599.25;;;36.18;25.43
12793;BME280;6460;42.684;23.260;2023-07-13T12:54:28;94605.00;;;35.95;23.89
12793;BME280;6460;42.684;23.260;2023-07-13T12:56:56;94592.03;;;35.57;24.83
12793;BME280;6460;42.684;23.260;2023-07-13T12:59:29;94581.69;;;36.17;25.31
12793;BME280;6460;42.684;23.260;2023-07-13T13:01:59;94576.00;;;36.52;24.42
12793;BME280;6460;42.684;23.260;2023-07-13T13:04:30;94592.28;;;36.54;24.25
12793;BME280;6460;42.684;23.260;2023-07-13T13:07:02;94587.47;;;36.54;23.74
12793;BME280;6460;42.684;23.260;2023-07-13T13:09:29;94569.72;;;36.17;24.86
12793;BME280;6460;42.684;23.260;2023-07-13T13:11:57;94571.06;;;36.10;23.95
12793;BME280;6460;42.684;23.260;2023-07-13T13:14:24;94564.09;;;36.46;24.57
12793;BME280;6460;42.684;23.260;2023-07-13T13:16:52;94568.31;;;36.34;24.66
12793;BME280;6460;42.684;23.260;2023-07-13T13:19:21;94573.56;;;36.68;23.89
12793;BME280;6460;42.684;23.260;2023-07-13T13:21:52;94563.41;;;36.65;23.50
12793;BME280;6460;42.684;23.260;2023-07-13T13:24:23;94577.03;;;36.55;23.95
12793;BME280;6460;42.684;23.260;2023-07-13T13:26:51;94563.16;;;36.87;23.49
12793;BME280;6460;42.684;23.260;2023-07-13T13:29:21;94561.50;;;36.54;23.63
12793;BME280;6460;42.684;23.260;2023-07-13T13:31:49;94569.63;;;36.76;23.16
12793;BME280;6460;42.684;23.260;2023-07-13T13:34:18;94551.41;;;37.13;23.56
12793;BME280;6460;42.684;23.260;2023-07-13T13:39:35;94551.03;;;36.79;24.18
12793;BME280;6460;42.684;23.260;2023-07-13T13:42:04;94555.56;;;36.63;23.48
12793;BME280;6460;42.684;23.260;2023-07-13T13:44:32;94551.56;;;36.77;23.25
12793;BME280;6460;42.684;23.260;2023-07-13T13:46:59;94553.63;;;36.95;23.54
12793;BME280;6460;42.684;23.260;2023-07-13T13:49:27;94549.97;;;36.33;24.58
12793;BME280;6460;42.684;23.260;2023-07-13T13:51:55;94553.97;;;36.43;24.56
12793;BME280;6460;42.684;23.260;2023-07-13T13:54:25;94543.66;;;37.00;24.38
12793;BME280;6460;42.684;23.260;2023-07-13T13:56:57;94550.22;;;37.45;23.99
12793;BME280;6460;42.684;23.260;2023-07-13T13:59:24;94533.81;;;37.68;22.46
12793;BME280;6460;42.684;23.260;2023-07-13T14:01:51;94547.06;;;37.68;23.42
12793;BME280;6460;42.684;23.260;2023-07-13T14:04:20;94547.22;;;36.76;23.93
12793;BME280;6460;42.684;23.260;2023-07-13T14:06:48;94543.34;;;37.59;23.43
12793;BME280;6460;42.684;23.260;2023-07-13T14:09:17;94543.47;;;36.92;24.24
12793;BME280;6460;42.684;23.260;2023-07-13T14:11:45;94546.50;;;36.76;23.74
12793;BME280;6460;42.684;23.260;2023-07-13T14:14:16;94547.66;;;36.62;24.19
12793;BME280;6460;42.684;23.260;2023-07-13T14:16:47;94534.91;;;36.85;23.53
12793;BME280;6460;42.684;23.260;2023-07-13T14:19:18;94538.00;;;36.81;24.42
12793;BME280;6460;42.684;23.260;2023-07-13T14:21:49;94530.91;;;37.74;23.74
12793;BME280;6460;42.684;23.260;2023-07-13T14:24:18;94531.06;;;37.44;23.86
12793;BME280;6460;42.684;23.260;2023-07-13T14:26:47;94517.81;;;37.95;23.53
12793;BME280;6460;42.684;23.260;2023-07-13T14:29:17;94529.13;;;37.39;24.80
12793;BME280;6460;42.684;23.260;2023-07-13T14:31:45;94527.13;;;37.34;24.63
12793;BME280;6460;42.684;23.260;2023-07-13T14:34:13;94539.97;;;36.86;24.95
12793;BME280;6460;42.684;23.260;2023-07-13T14:36:42;94531.09;;;36.64;26.17
12793;BME280;6460;42.684;23.260;2023-07-13T14:39:13;94526.81;;;37.37;25.03
12793;BME280;6460;42.684;23.260;2023-07-13T14:41:41;94527.75;;;37.08;25.64
12793;BME280;6460;42.684;23.260;2023-07-13T14:44:12;94521.13;;;36.87;25.72
12793;BME280;6460;42.684;23.260;2023-07-13T14:46:41;94518.31;;;36.87;26.18
12793;BME280;6460;42.684;23.260;2023-07-13T14:49:15;94525.72;;;36.66;25.85
12793;BME280;6460;42.684;23.260;2023-07-13T14:51:43;94520.25;;;36.54;26.06
12793;BME280;6460;42.684;23.260;2023-07-13T14:54:27;94511.19;;;36.86;25.58
12793;BME280;6460;42.684;23.260;2023-07-13T14:56:55;94512.13;;;37.50;25.99
12793;BME280;6460;42.684;23.260;2023-07-13T14:59:22;94522.03;;;36.76;26.17
12793;BME280;6460;42.684;23.260;2023-07-13T15:01:51;94513.31;;;36.80;26.22
12793;BME280;6460;42.684;23.260;2023-07-13T15:04:18;94517.91;;;37.57;26.20
12793;BME280;6460;42.684;23.260;2023-07-13T15:06:54;94519.34;;;37.08;25.76
12793;BME280;6460;42.684;23.260;2023-07-13T15:09:22;94528.41;;;36.52;26.17
12793;BME280;6460;42.684;23.260;2023-07-13T15:11:50;94528.75;;;36.43;26.38
12793;BME280;6460;42.684;23.260;2023-07-13T15:14:17;94516.09;;;37.04;25.97
12793;BME280;6460;42.684;23.260;2023-07-13T15:16:45;94511.09;;;37.16;25.21
12793;BME280;6460;42.684;23.260;2023-07-13T15:19:17;94508.50;;;37.87;25.52
12793;BME280;6460;42.684;23.260;2023-07-13T15:21:46;94521.97;;;37.56;25.36
12793;BME280;6460;42.684;23.260;2023-07-13T15:24:14;94521.28;;;38.01;24.63
12793;BME280;6460;42.684;23.260;2023-07-13T15:26:41;94515.41;;;37.54;25.80
12793;BME280;6460;42.684;23.260;2023-07-13T15:29:11;94516.06;;;37.60;24.67
12793;BME280;6460;42.684;23.260;2023-07-13T15:31:38;94512.63;;;37.67;24.31
12793;BME280;6460;42.684;23.260;2023-07-13T15:34:11;94513.31;;;37.73;25.11
12793;BME280;6460;42.684;23.260;2023-07-13T15:36:40;94513.09;;;36.78;25.58
12793;BME280;6460;42.684;23.260;2023-07-13T15:39:13;94506.38;;;37.42;25.71
12793;BME280;6460;42.684;23.260;2023-07-13T15:41:42;94502.59;;;37.58;25.16
12793;BME280;6460;42.684;23.260;2023-07-13T15:44:23;94510.69;;;36.87;25.90
12793;BME280;6460;42.684;23.260;2023-07-13T15:46:51;94516.97;;;36.50;26.10
12793;BME280;6460;42.684;23.260;2023-07-13T15:49:18;94515.59;;;37.56;25.60
12793;BME280;6460;42.684;23.260;2023-07-13T15:51:47;94512.63;;;37.67;24.64
12793;BME280;6460;42.684;23.260;2023-07-13T15:54:17;94517.19;;;36.95;26.22
12793;BME280;6460;42.684;23.260;2023-07-13T15:56:49;94514.09;;;37.18;25.96
12793;BME280;6460;42.684;23.260;2023-07-13T15:59:18;94516.09;;;37.04;25.24
12793;BME280;6460;42.684;23.260;2023-07-13T16:01:45;94516.97;;;36.93;25.85
12793;BME280;6460;42.684;23.260;2023-07-13T16:04:15;94510.16;;;36.89;25.64
12793;BME280;6460;42.684;23.260;2023-07-13T16:06:43;94510.78;;;37.19;25.52
12793;BME280;6460;42.684;23.260;2023-07-13T16:09:18;94518.34;;;37.24;25.88
12793;BME280;6460;42.684;23.260;2023-07-13T16:11:47;94512.00;;;37.24;26.28
12793;BME280;6460;42.684;23.260;2023-07-13T16:14:16;94505.84;;;37.25;25.67
12793;BME280;6460;42.684;23.260;2023-07-13T16:16:44;94502.78;;;36.86;26.62
12793;BME280;6460;42.684;23.260;2023-07-13T16:19:11;94508.38;;;36.67;26.48
12793;BME280;6460;42.684;23.260;2023-07-13T16:21:43;94506.66;;;36.83;26.77
12793;BME280;6460;42.684;23.260;2023-07-13T16:24:17;94502.09;;;37.04;26.54
12793;BME280;6460;42.684;23.260;2023-07-13T16:26:46;94505.97;;;37.01;27.12
12793;BME280;6460;42.684;23.260;2023-07-13T16:29:14;94498.97;;;37.07;27.04
12793;BME280;6460;42.684;23.260;2023-07-13T16:31:42;94489.06;;;36.64;27.89
12793;BME280;6460;42.684;23.260;2023-07-13T16:34:09;94502.09;;;35.83;28.63
12793;BME280;6460;42.684;23.260;2023-07-13T16:36:37;94499.09;;;35.75;28.67
12793;BME280;6460;42.684;23.260;2023-07-13T16:39:11;94497.78;;;35.46;29.49
12793;BME280;6460;42.684;23.260;2023-07-13T16:41:40;94502.97;;;35.96;28.97
12793;BME280;6460;42.684;23.260;2023-07-13T16:44:11;94506.03;;;35.69;29.30
12793;BME280;6460;42.684;23.260;2023-07-13T16:46:39;94506.56;;;35.32;29.77
12793;BME280;6460;42.684;23.260;2023-07-13T16:49:20;94509.16;;;35.19;29.74
12793;BME280;6460;42.684;23.260;2023-07-13T16:51:48;94511.88;;;34.83;29.81
12793;BME280;6460;42.684;23.260;2023-07-13T16:54:16;94500.94;;;34.91;29.82
12793;BME280;6460;42.684;23.260;2023-07-13T16:56:47;94510.38;;;34.77;30.22
12793;BME280;6460;42.684;23.260;2023-07-13T16:59:17;94502.03;;;34.71;30.12
12793;BME280;6460;42.684;23.260;2023-07-13T17:01:45;94500.84;;;35.13;29.44
12793;BME280;6460;42.684;23.260;2023-07-13T17:04:15;94510.91;;;34.70;30.23
12793;BME280;6460;42.684;23.260;2023-07-13T17:06:46;94507.00;;;34.26;30.63
12793;BME280;6460;42.684;23.260;2023-07-13T17:09:14;94507.53;;;33.97;31.32